Time;durP1;ratioP1;P1;durP2;ratioP2;P2;SDS_P1;SDS_P2;PMS_P1;PMS_P2;Temp;Humidity;BMP_temperature;BMP_pressure;BME280_temperature;BME280_humidity;BME280_pressure;Samples;Min_cycle;Max_cycle;Signal;HPM_P1;HPM_P2
2021/10/05 00:01:43;;;;;;;12.10;7.70;;;;;;;6.21;77.52;98036.05;116128;1184;59567;-73
2021/10/05 00:04:13;;;;;;;13.50;8.90;;;;;;;6.20;79.54;98037.13;116131;1184;70456;-73
2021/10/05 00:06:43;;;;;;;18.10;10.60;;;;;;;6.20;80.27;98037.47;116166;1184;68394;-72
2021/10/05 00:09:13;;;;;;;10.60;8.70;;;;;;;6.20;79.80;98037.65;116105;1187;67509;-72
2021/10/05 00:11:42;;;;;;;8.40;5.00;;;;;;;6.19;78.57;98039.06;116067;1184;59609;-71
2021/10/05 00:14:12;;;;;;;9.40;7.20;;;;;;;6.18;77.11;98038.26;116162;1184;59534;-72
2021/10/05 00:16:41;;;;;;;8.10;5.20;;;;;;;6.18;77.77;98038.27;116104;1184;71306;-72
2021/10/05 00:19:11;;;;;;;10.10;7.00;;;;;;;6.17;77.45;98032.76;116054;1184;67683;-72
2021/10/05 00:21:42;;;;;;;6.70;4.10;;;;;;;6.15;77.11;98033.36;116084;1184;69254;-72
2021/10/05 00:24:13;;;;;;;8.30;5.10;;;;;;;6.15;75.99;98030.42;116054;1185;59579;-71
2021/10/05 00:26:52;;;;;;;6.80;4.70;;;;;;;6.13;76.36;98028.41;116030;1184;59535;-73
2021/10/05 00:29:26;;;;;;;7.70;5.20;;;;;;;6.11;77.85;98030.57;116007;1185;70667;-73
2021/10/05 00:31:57;;;;;;;7.20;4.50;;;;;;;6.10;76.90;98029.77;116006;1184;67674;-72
2021/10/05 00:34:32;;;;;;;10.20;7.00;;;;;;;6.08;76.89;98028.64;115945;1186;68185;-72
2021/10/05 00:37:09;;;;;;;12.00;8.40;;;;;;;6.06;77.09;98028.23;116081;1184;59535;-73
2021/10/05 00:39:47;;;;;;;7.90;6.60;;;;;;;6.05;77.32;98027.39;116070;1184;59609;-74
2021/10/05 00:42:23;;;;;;;10.10;6.40;;;;;;;6.04;77.43;98030.71;115976;1184;71457;-74
2021/10/05 00:45:05;;;;;;;10.20;7.10;;;;;;;6.03;76.80;98030.80;115829;1187;67461;-74
2021/10/05 00:47:43;;;;;;;5.90;5.00;;;;;;;6.01;76.78;98035.36;115982;1184;69469;-72
2021/10/05 00:50:17;;;;;;;11.30;8.90;;;;;;;5.99;77.46;98036.68;115931;1186;59560;-73
2021/10/05 00:52:51;;;;;;;12.20;7.20;;;;;;;5.96;78.29;98036.80;115984;1184;59565;-72
2021/10/05 00:55:26;;;;;;;9.90;6.60;;;;;;;5.93;78.63;98040.23;116043;1184;71386;-73
2021/10/05 00:57:58;;;;;;;10.40;7.30;;;;;;;5.90;79.16;98042.40;116034;1187;68809;-73
2021/10/05 01:00:29;;;;;;;13.10;9.70;;;;;;;5.87;79.09;98043.90;115975;1184;68337;-74
2021/10/05 01:03:01;;;;;;;8.70;6.50;;;;;;;5.83;79.66;98041.48;116042;1184;59596;-72
2021/10/05 01:05:33;;;;;;;9.60;7.00;;;;;;;5.81;77.88;98040.52;115954;1185;59561;-71
2021/10/05 01:08:05;;;;;;;11.90;7.90;;;;;;;5.81;78.22;98043.31;115982;1184;71363;-71
2021/10/05 01:10:37;;;;;;;17.30;11.20;;;;;;;5.80;79.31;98045.96;115981;1184;67668;-73
2021/10/05 01:13:08;;;;;;;9.90;7.40;;;;;;;5.78;81.15;98046.03;115841;1184;69231;-72
2021/10/05 01:15:43;;;;;;;8.10;4.70;;;;;;;5.77;78.23;98046.23;116058;1185;59519;-73
2021/10/05 01:18:21;;;;;;;6.70;4.50;;;;;;;5.76;77.02;98046.63;116009;1186;59570;-73
2021/10/05 01:20:59;;;;;;;11.10;7.90;;;;;;;5.75;77.61;98046.51;116053;1184;70442;-73
2021/10/05 01:23:34;;;;;;;9.10;6.50;;;;;;;5.74;79.40;98044.67;116058;1184;67055;-73
2021/10/05 01:26:16;;;;;;;8.90;5.30;;;;;;;5.74;78.35;98041.73;116081;1184;68443;-74
2021/10/05 01:28:53;;;;;;;10.10;6.10;;;;;;;5.73;78.05;98040.88;116020;1184;59763;-71
2021/10/05 01:31:26;;;;;;;10.30;6.70;;;;;;;5.73;79.49;98039.34;115966;1184;59592;-73
2021/10/05 01:34:02;;;;;;;9.10;6.40;;;;;;;5.72;79.53;98042.49;115826;1187;71805;-73
2021/10/05 01:36:39;;;;;;;10.60;7.00;;;;;;;5.72;78.67;98039.56;115989;1186;68425;-74
2021/10/05 01:39:33;;;;;;;9.00;6.40;;;;;;;5.71;78.65;98034.42;115995;1186;68383;-73
2021/10/05 01:42:12;;;;;;;8.10;4.90;;;;;;;5.68;79.64;98034.17;116035;1185;59564;-73
2021/10/05 01:44:48;;;;;;;9.40;7.40;;;;;;;5.66;78.34;98034.30;115945;1186;59529;-73
2021/10/05 01:47:24;;;;;;;9.50;6.10;;;;;;;5.62;77.74;98034.59;115888;1186;70969;-73
2021/10/05 01:49:59;;;;;;;7.20;5.70;;;;;;;5.59;77.07;98033.36;115869;1185;67247;-72
2021/10/05 01:52:37;;;;;;;9.10;6.70;;;;;;;5.55;77.29;98038.02;116024;1184;68539;-71
2021/10/05 01:55:17;;;;;;;9.70;7.50;;;;;;;5.51;78.54;98033.54;115790;1187;60021;-73
2021/10/05 01:57:56;;;;;;;8.60;6.60;;;;;;;5.48;77.35;98036.95;115912;1187;59564;-73
2021/10/05 02:00:34;;;;;;;9.60;6.40;;;;;;;5.46;76.84;98037.56;116037;1177;71272;-72
2021/10/05 02:03:19;;;;;;;9.60;6.60;;;;;;;5.44;76.88;98039.52;115994;1186;67648;-73
2021/10/05 02:05:58;;;;;;;8.90;5.80;;;;;;;5.41;77.96;98038.27;116090;1185;69340;-72
2021/10/05 02:08:40;;;;;;;10.70;6.70;;;;;;;5.39;78.37;98036.64;116014;1185;59640;-73
2021/10/05 02:11:21;;;;;;;8.30;6.30;;;;;;;5.38;77.76;98039.28;115849;1185;59593;-75
2021/10/05 02:14:02;;;;;;;6.50;4.70;;;;;;;5.36;78.40;98037.27;116054;1184;71405;-72
2021/10/05 02:16:36;;;;;;;9.80;6.50;;;;;;;5.36;77.31;98035.89;115837;1187;67644;-71
2021/10/05 02:19:09;;;;;;;7.00;5.10;;;;;;;5.36;78.02;98030.02;116079;1184;69247;-73
2021/10/05 02:21:47;;;;;;;10.40;7.90;;;;;;;5.34;77.74;98032.84;116088;1184;59567;-74
2021/10/05 02:24:52;;;;;;;6.00;4.50;;;;;;;5.35;77.61;98030.21;115987;1186;59560;-74
2021/10/05 02:27:32;;;;;;;7.10;5.40;;;;;;;5.40;76.95;98026.58;116040;1186;71502;-73
2021/10/05 02:30:10;;;;;;;8.40;5.50;;;;;;;5.43;78.41;98029.55;116060;1184;68389;-72
2021/10/05 02:32:55;;;;;;;5.50;4.40;;;;;;;5.43;78.75;98030.61;115948;1185;68556;-73
2021/10/05 02:35:35;;;;;;;10.80;7.70;;;;;;;5.42;79.25;98032.34;116034;1184;59611;-73
2021/10/05 02:38:10;;;;;;;8.80;6.30;;;;;;;5.40;78.72;98030.89;116075;1184;59552;-73
2021/10/05 02:40:45;;;;;;;11.10;7.70;;;;;;;5.37;81.90;98031.87;115934;1184;70747;-73
2021/10/05 02:43:22;;;;;;;9.30;7.10;;;;;;;5.33;81.73;98035.50;115908;1186;68496;-71
2021/10/05 02:46:01;;;;;;;6.30;4.30;;;;;;;5.30;82.31;98037.19;116072;1184;68515;-73
2021/10/05 02:48:38;;;;;;;11.30;8.50;;;;;;;5.29;79.80;98033.77;115973;1183;59527;-75
2021/10/05 02:51:17;;;;;;;10.80;7.70;;;;;;;5.27;82.50;98034.52;116065;1184;59618;-72
2021/10/05 02:53:54;;;;;;;10.00;6.80;;;;;;;5.25;81.92;98037.20;116008;1184;70939;-72
2021/10/05 02:56:27;;;;;;;9.90;7.50;;;;;;;5.22;83.33;98035.77;115976;1187;67976;-73
2021/10/05 02:58:58;;;;;;;12.10;8.20;;;;;;;5.20;82.85;98035.20;116001;1185;70295;-73
2021/10/05 03:01:33;;;;;;;12.70;9.50;;;;;;;5.18;84.68;98032.52;116016;1184;59641;-73
2021/10/05 03:04:09;;;;;;;12.80;9.00;;;;;;;5.16;85.88;98035.01;116241;1183;59555;-72
2021/10/05 03:06:43;;;;;;;10.30;7.00;;;;;;;5.17;85.55;98036.88;116141;1184;71151;-72
2021/10/05 03:09:29;;;;;;;10.00;6.80;;;;;;;5.17;84.37;98037.73;116086;1183;68101;-73
2021/10/05 03:12:05;;;;;;;6.80;5.60;;;;;;;5.18;82.82;98034.77;116091;1184;69335;-72
2021/10/05 03:14:42;;;;;;;8.00;5.60;;;;;;;5.18;84.58;98029.91;116062;1184;59545;-71
2021/10/05 03:17:17;;;;;;;10.60;8.00;;;;;;;5.18;83.88;98026.80;116087;1184;59622;-72
2021/10/05 03:19:49;;;;;;;10.10;6.90;;;;;;;5.17;83.85;98024.41;116135;1184;71266;-72
2021/10/05 03:22:19;;;;;;;7.80;5.80;;;;;;;5.15;82.35;98027.95;116154;1183;68424;-72
2021/10/05 03:24:50;;;;;;;6.90;4.70;;;;;;;5.13;81.78;98026.48;116093;1184;68448;-72
2021/10/05 03:27:19;;;;;;;10.80;8.60;;;;;;;5.10;82.62;98029.70;116267;1183;59556;-70
2021/10/05 03:29:49;;;;;;;15.40;9.60;;;;;;;5.05;83.52;98033.01;116217;1184;59528;-72
2021/10/05 03:32:19;;;;;;;12.40;8.40;;;;;;;4.96;84.58;98035.46;116181;1184;71385;-72
2021/10/05 03:34:49;;;;;;;12.20;8.50;;;;;;;4.87;84.43;98033.56;116338;1184;67664;-71
2021/10/05 03:37:19;;;;;;;;;;;;;;;4.81;83.89;98028.98;116210;1184;68466;-71
2021/10/05 03:39:49;;;;;;;13.80;8.30;;;;;;;4.74;85.08;98031.32;116275;1183;59519;-71
2021/10/05 03:42:19;;;;;;;;;;;;;;;4.71;83.81;98033.69;116257;1184;59593;-72
2021/10/05 03:44:48;;;;;;;8.10;5.10;;;;;;;4.68;82.56;98030.72;116247;1183;71230;-71
2021/10/05 03:47:18;;;;;;;8.80;5.20;;;;;;;4.65;82.62;98033.07;116137;1184;67749;-73
2021/10/05 03:49:48;;;;;;;7.00;4.80;;;;;;;4.63;82.69;98033.52;116108;1184;69189;-72
2021/10/05 03:52:17;;;;;;;5.90;4.20;;;;;;;4.61;82.13;98035.46;116267;1184;59567;-72
2021/10/05 03:54:47;;;;;;;8.10;5.80;;;;;;;4.57;81.52;98036.64;116376;1183;59479;-72
2021/10/05 03:57:19;;;;;;;8.30;5.90;;;;;;;4.54;81.69;98042.98;116207;1184;71182;-73
2021/10/05 03:59:48;;;;;;;5.90;5.30;;;;;;;4.52;81.25;98044.77;116344;1184;67733;-71
2021/10/05 04:02:18;;;;;;;11.10;8.00;;;;;;;4.52;81.46;98050.84;116395;1183;69345;-72
2021/10/05 04:04:47;;;;;;;8.20;6.00;;;;;;;4.51;83.61;98050.00;116297;1183;59628;-71
2021/10/05 04:07:16;;;;;;;7.40;5.50;;;;;;;4.50;84.05;98048.11;116241;1184;59538;-71
2021/10/05 04:09:46;;;;;;;10.60;7.60;;;;;;;4.51;83.00;98051.36;116322;1182;71379;-71
2021/10/05 04:12:15;;;;;;;7.20;5.10;;;;;;;4.51;84.13;98055.72;116174;1183;68193;-73
2021/10/05 04:14:45;;;;;;;6.30;4.60;;;;;;;4.51;82.71;98059.86;116332;1184;68290;-70
2021/10/05 04:17:14;;;;;;;5.80;3.40;;;;;;;4.51;81.56;98061.41;116393;1182;59558;-72
2021/10/05 04:19:44;;;;;;;8.40;5.40;;;;;;;4.52;80.71;98069.27;116334;1183;60052;-71
2021/10/05 04:22:13;;;;;;;10.60;7.50;;;;;;;4.53;80.75;98071.85;116138;1184;70679;-71
2021/10/05 04:24:43;;;;;;;8.40;4.90;;;;;;;4.51;81.64;98081.91;116401;1183;68574;-71
2021/10/05 04:27:12;;;;;;;9.80;5.80;;;;;;;4.50;80.24;98076.81;116352;1182;69274;-71
2021/10/05 04:29:42;;;;;;;6.30;3.80;;;;;;;4.48;79.93;98077.54;116303;1183;59541;-71
2021/10/05 04:32:12;;;;;;;10.00;6.30;;;;;;;4.47;79.72;98079.48;116375;1182;59532;-71
2021/10/05 04:34:43;;;;;;;9.00;6.40;;;;;;;4.45;81.08;98080.61;116336;1183;71362;-71
2021/10/05 04:37:12;;;;;;;9.90;6.70;;;;;;;4.45;82.18;98083.36;116311;1184;67595;-71
2021/10/05 04:39:41;;;;;;;12.00;8.20;;;;;;;4.46;80.40;98087.65;116133;1184;69064;-72
2021/10/05 04:42:11;;;;;;;9.80;7.80;;;;;;;4.48;80.66;98088.61;116263;1183;59573;-71
2021/10/05 04:44:41;;;;;;;13.40;9.30;;;;;;;4.50;80.98;98093.55;116359;1183;59593;-73
2021/10/05 04:47:10;;;;;;;6.40;4.20;;;;;;;4.53;81.94;98098.77;116281;1183;71380;-72
2021/10/05 04:49:39;;;;;;;8.60;5.50;;;;;;;4.58;80.73;98099.61;116406;1183;67709;-71
2021/10/05 04:52:08;;;;;;;13.80;9.90;;;;;;;4.63;82.09;98103.41;116287;1183;68429;-71
2021/10/05 04:54:37;;;;;;;7.20;4.80;;;;;;;4.66;82.39;98105.02;116129;1183;59523;-72
2021/10/05 04:57:06;;;;;;;9.10;6.40;;;;;;;4.69;80.82;98102.85;116348;1182;59548;-72
2021/10/05 04:59:35;;;;;;;6.90;5.10;;;;;;;4.71;80.57;98102.78;116354;1183;71364;-72
2021/10/05 05:02:05;;;;;;;9.00;4.80;;;;;;;4.74;79.87;98099.53;116273;1184;67576;-72
2021/10/05 05:04:34;;;;;;;7.70;4.90;;;;;;;4.83;79.94;98100.22;116211;1184;68669;-73
2021/10/05 05:07:04;;;;;;;6.90;4.90;;;;;;;5.05;80.31;98104.20;116417;1182;59538;-71
2021/10/05 05:09:33;;;;;;;7.60;6.50;;;;;;;5.42;79.64;98114.28;116402;1182;59561;-71
2021/10/05 05:12:02;;;;;;;7.40;4.60;;;;;;;5.85;79.24;98117.88;116358;1183;71627;-71
2021/10/05 05:14:31;;;;;;;10.50;8.00;;;;;;;6.32;78.57;98123.11;116383;1183;67343;-72
2021/10/05 05:17:00;;;;;;;10.40;7.70;;;;;;;6.79;77.85;98119.44;116362;1183;69900;-72
2021/10/05 05:19:33;;;;;;;15.10;10.10;;;;;;;7.22;77.22;98119.29;116327;1183;59523;-74
2021/10/05 05:22:02;;;;;;;11.00;8.20;;;;;;;7.62;75.68;98122.55;116305;1184;59484;-73
2021/10/05 05:24:31;;;;;;;10.20;8.80;;;;;;;8.03;74.57;98126.58;116366;1183;70611;-72
2021/10/05 05:27:00;;;;;;;10.70;8.40;;;;;;;8.47;74.74;98128.46;116179;1184;68387;-70
2021/10/05 05:29:29;;;;;;;9.60;7.30;;;;;;;8.83;72.63;98122.24;116404;1179;69962;-73
2021/10/05 05:31:58;;;;;;;10.50;9.00;;;;;;;9.09;72.45;98120.92;116303;1182;59561;-71
2021/10/05 05:34:28;;;;;;;8.30;5.70;;;;;;;9.36;71.61;98128.15;116313;1184;59491;-74
2021/10/05 05:36:57;;;;;;;12.30;9.20;;;;;;;9.85;72.31;98128.08;116358;1183;72036;-72
2021/10/05 05:39:26;;;;;;;11.90;9.20;;;;;;;10.36;69.30;98133.48;116216;1183;68033;-73
2021/10/05 05:41:55;;;;;;;10.50;9.00;;;;;;;10.65;66.78;98131.14;116320;1183;69267;-71
2021/10/05 05:44:25;;;;;;;13.90;10.40;;;;;;;10.72;66.09;98128.64;116302;1184;59513;-73
2021/10/05 05:46:54;;;;;;;13.40;11.50;;;;;;;10.77;66.13;98127.99;116188;1184;59561;-73
2021/10/05 05:49:23;;;;;;;14.20;10.90;;;;;;;10.94;65.01;98131.48;116169;1183;71433;-71
2021/10/05 05:51:52;;;;;;;7.80;6.40;;;;;;;11.20;66.02;98134.33;116180;1184;69024;-71
2021/10/05 05:54:22;;;;;;;11.50;8.90;;;;;;;11.69;66.64;98138.86;116061;1183;68552;-72
2021/10/05 05:56:51;;;;;;;11.40;9.20;;;;;;;12.20;64.61;98140.85;116314;1183;59551;-73
2021/10/05 05:59:20;;;;;;;15.80;12.90;;;;;;;12.58;62.26;98137.61;116323;1183;59575;-72
2021/10/05 06:01:49;;;;;;;15.60;13.20;;;;;;;12.59;61.13;98136.98;116293;1184;71437;-73
2021/10/05 06:04:18;;;;;;;16.20;11.90;;;;;;;12.54;60.27;98138.59;116137;1184;68446;-74
2021/10/05 06:06:47;;;;;;;18.80;14.20;;;;;;;12.32;61.27;98137.27;116298;1183;69733;-72
2021/10/05 06:09:16;;;;;;;14.50;12.50;;;;;;;12.32;61.97;98139.00;116329;1183;59549;-72
2021/10/05 06:11:48;;;;;;;13.20;11.40;;;;;;;12.66;63.08;98133.88;116132;1182;59557;-72
2021/10/05 06:14:17;;;;;;;11.70;10.40;;;;;;;13.06;61.87;98135.05;116104;1187;71409;-73
2021/10/05 06:16:46;;;;;;;11.70;9.70;;;;;;;13.43;61.13;98135.77;116093;1183;67520;-73
2021/10/05 06:19:16;;;;;;;14.90;11.70;;;;;;;13.72;59.15;98139.23;116036;1184;69577;-72
2021/10/05 06:21:45;;;;;;;9.20;8.20;;;;;;;13.91;59.09;98138.68;116157;1184;59554;-71
2021/10/05 06:24:15;;;;;;;15.90;11.50;;;;;;;14.43;59.57;98136.17;116167;1183;59540;-72
2021/10/05 06:26:45;;;;;;;12.80;11.40;;;;;;;14.93;57.45;98131.42;116356;1183;71367;-72
2021/10/05 06:29:14;;;;;;;9.50;7.80;;;;;;;15.30;56.63;98127.42;116215;1182;68521;-72
2021/10/05 06:31:43;;;;;;;12.00;8.80;;;;;;;15.70;55.02;98131.87;116317;1184;69106;-72
2021/10/05 06:34:11;;;;;;;12.00;9.80;;;;;;;15.94;52.88;98129.88;116309;1183;59640;-71
2021/10/05 06:36:40;;;;;;;12.20;10.40;;;;;;;15.95;52.92;98127.14;116356;1183;59561;-73
2021/10/05 06:39:09;;;;;;;13.70;11.80;;;;;;;15.93;52.76;98122.62;116215;1183;71427;-73
2021/10/05 06:41:38;;;;;;;10.40;8.20;;;;;;;15.78;53.47;98123.45;116267;1183;68391;-73
2021/10/05 06:44:07;;;;;;;12.00;10.70;;;;;;;15.95;54.15;98122.80;116295;1182;68524;-72
2021/10/05 06:46:42;;;;;;;10.40;9.30;;;;;;;15.62;53.33;98128.49;116329;1182;59545;-71
2021/10/05 06:49:17;;;;;;;14.30;10.70;;;;;;;15.42;54.33;98130.05;116337;1183;59554;-72
2021/10/05 06:51:46;;;;;;;14.80;10.70;;;;;;;15.25;54.83;98127.39;116370;1182;70531;-73
2021/10/05 06:54:15;;;;;;;9.50;7.00;;;;;;;15.57;55.92;98131.67;116325;1183;68465;-73
2021/10/05 06:56:44;;;;;;;9.50;8.40;;;;;;;15.99;55.17;98132.13;116217;1184;69311;-71
2021/10/05 06:59:13;;;;;;;13.30;10.20;;;;;;;16.44;53.88;98129.73;116157;1184;59506;-71
2021/10/05 07:01:42;;;;;;;11.10;8.80;;;;;;;16.51;52.06;98135.42;116330;1184;59563;-71
2021/10/05 07:04:11;;;;;;;11.40;7.70;;;;;;;16.83;51.67;98137.27;116386;1183;71488;-72
2021/10/05 07:06:41;;;;;;;10.50;8.30;;;;;;;17.29;50.93;98134.33;116373;1182;68467;-72
2021/10/05 07:09:10;;;;;;;9.50;7.30;;;;;;;17.69;48.35;98135.52;116357;1184;69381;-70
2021/10/05 07:11:38;;;;;;;9.60;5.50;;;;;;;18.07;48.76;98129.20;116168;1184;59564;-71
2021/10/05 07:14:07;;;;;;;5.80;5.10;;;;;;;18.53;46.62;98128.67;116302;1182;59571;-70
2021/10/05 07:16:36;;;;;;;6.40;5.60;;;;;;;18.80;45.13;98126.43;116168;1184;70916;-70
2021/10/05 07:19:05;;;;;;;6.10;5.50;;;;;;;19.30;43.91;98120.47;116228;1184;67117;-73
2021/10/05 07:21:34;;;;;;;7.60;5.50;;;;;;;19.40;43.03;98119.28;116199;1184;69553;-72
2021/10/05 07:24:03;;;;;;;6.30;5.50;;;;;;;19.29;42.99;98124.97;116294;1184;59560;-73
2021/10/05 07:26:32;;;;;;;5.10;4.60;;;;;;;19.60;41.06;98124.68;116092;1184;59557;-73
2021/10/05 07:29:01;;;;;;;6.00;5.00;;;;;;;19.61;40.78;98124.10;116202;1184;71403;-72
2021/10/05 07:31:34;;;;;;;6.00;5.40;;;;;;;19.80;40.27;98122.55;116186;1183;68459;-75
2021/10/05 07:34:08;;;;;;;6.70;4.60;;;;;;;19.70;40.26;98121.40;116217;1183;69260;-74
2021/10/05 07:36:37;;;;;;;7.70;5.50;;;;;;;19.64;40.26;98121.16;116328;1183;59522;-73
2021/10/05 07:39:08;;;;;;;6.10;4.40;;;;;;;19.56;39.93;98117.16;116327;1183;59564;-72
2021/10/05 07:41:37;;;;;;;5.80;4.70;;;;;;;19.48;39.90;98114.70;116353;1183;72170;-72
2021/10/05 07:44:06;;;;;;;7.60;5.50;;;;;;;19.66;39.56;98120.07;116288;1184;67663;-72
2021/10/05 07:46:35;;;;;;;6.50;5.00;;;;;;;19.72;39.57;98127.09;116101;1186;69400;-71
2021/10/05 07:49:05;;;;;;;6.80;5.40;;;;;;;19.65;39.88;98128.61;116177;1178;59529;-72
2021/10/05 07:51:34;;;;;;;7.50;5.50;;;;;;;19.81;39.64;98129.89;116264;1184;59566;-72
2021/10/05 07:54:05;;;;;;;5.80;4.40;;;;;;;19.71;39.86;98124.14;116236;1183;70576;-71
2021/10/05 07:56:34;;;;;;;6.80;5.30;;;;;;;19.95;39.74;98122.17;116365;1184;68564;-70
2021/10/05 07:59:03;;;;;;;6.20;5.60;;;;;;;20.01;39.66;98123.89;116372;1182;68515;-71
2021/10/05 08:01:33;;;;;;;8.00;5.60;;;;;;;20.17;39.21;98122.20;116120;1183;59564;-74
2021/10/05 08:04:04;;;;;;;5.20;4.20;;;;;;;20.57;38.64;98125.55;116201;1184;59519;-72
2021/10/05 08:06:40;;;;;;;7.40;4.40;;;;;;;20.91;37.54;98132.02;116283;1184;71233;-71
2021/10/05 08:09:10;;;;;;;6.00;5.00;;;;;;;20.80;37.81;98124.30;116358;1183;68091;-71
2021/10/05 08:11:39;;;;;;;5.40;4.40;;;;;;;20.46;38.29;98127.24;116263;1184;68301;-72
2021/10/05 08:14:08;;;;;;;5.10;4.40;;;;;;;20.60;37.94;98130.59;116190;1184;59542;-71
2021/10/05 08:16:38;;;;;;;;;;;;;;;20.51;38.17;98126.58;116171;1184;59544;-72
2021/10/05 08:19:15;;;;;;;5.30;4.20;;;;;;;20.58;38.88;98121.21;116324;1184;70405;-74
2021/10/05 08:21:46;;;;;;;5.00;4.00;;;;;;;20.98;38.04;98115.54;116295;1182;67767;-74
2021/10/05 08:24:15;;;;;;;5.20;4.20;;;;;;;21.17;38.04;98112.69;116210;1183;68582;-73
2021/10/05 08:26:44;;;;;;;4.70;3.90;;;;;;;21.38;36.82;98106.77;116197;1184;59549;-73
2021/10/05 08:29:22;;;;;;;6.80;4.30;;;;;;;21.54;36.41;98109.29;116069;1184;59557;-75
2021/10/05 08:32:37;;;;;;;6.10;4.20;;;;;;;21.73;35.56;98106.00;116225;1182;70584;-74
2021/10/05 08:35:40;;;;;;;6.60;4.40;;;;;;;21.85;36.16;98099.37;116058;1184;68190;-72
2021/10/05 08:38:28;;;;;;;6.80;4.40;;;;;;;22.23;35.12;98100.56;116183;1184;69034;-72
2021/10/05 08:40:58;;;;;;;4.90;4.10;;;;;;;22.51;34.00;98101.20;116130;1184;59564;-74
2021/10/05 08:43:28;;;;;;;6.60;4.00;;;;;;;22.13;34.47;98097.77;116136;1184;59516;-74
2021/10/05 08:45:57;;;;;;;;;;;;;;;22.32;33.70;98095.55;116241;1182;72083;-74
2021/10/05 08:48:35;;;;;;;7.40;4.30;;;;;;;22.47;33.56;98091.70;116328;1183;67873;-73
2021/10/05 08:51:06;;;;;;;5.60;4.00;;;;;;;22.69;33.44;98092.77;116209;1184;68428;-73
2021/10/05 08:53:41;;;;;;;6.50;4.40;;;;;;;23.11;31.96;98089.70;116356;1183;59512;-74
2021/10/05 08:56:17;;;;;;;5.30;4.40;;;;;;;23.06;31.94;98086.19;116312;1183;59567;-73
2021/10/05 08:59:06;;;;;;;4.70;3.70;;;;;;;23.35;31.39;98081.56;116088;1184;70667;-74
2021/10/05 09:02:20;;;;;;;6.80;4.50;;;;;;;23.10;32.05;98086.41;116089;1184;68617;-71
2021/10/05 09:04:57;;;;;;;5.60;4.50;;;;;;;23.05;32.08;98087.33;116171;1184;68450;-73
2021/10/05 09:07:26;;;;;;;6.30;4.30;;;;;;;22.92;32.42;98084.17;116193;1184;59596;-74
2021/10/05 09:09:56;;;;;;;7.00;4.70;;;;;;;23.21;32.01;98075.38;116139;1184;59649;-73
2021/10/05 09:12:31;;;;;;;5.90;4.20;;;;;;;23.79;30.91;98074.23;116232;1183;71476;-73
2021/10/05 09:15:05;;;;;;;5.50;4.90;;;;;;;23.76;29.92;98079.36;116214;1184;67658;-73
2021/10/05 09:17:37;;;;;;;7.30;4.80;;;;;;;23.66;29.91;98084.25;116121;1184;69301;-73
2021/10/05 09:20:26;;;;;;;6.70;5.00;;;;;;;23.79;29.79;98088.66;116097;1183;59557;-73
2021/10/05 09:23:12;;;;;;;7.30;5.50;;;;;;;23.69;30.40;98087.66;116142;1184;59571;-73
2021/10/05 09:25:50;;;;;;;5.90;5.10;;;;;;;23.84;30.31;98089.98;116153;1184;70355;-73
2021/10/05 09:28:29;;;;;;;10.60;8.50;;;;;;;23.99;29.86;98084.33;116111;1184;67646;-74
2021/10/05 09:31:08;;;;;;;6.00;4.10;;;;;;;24.06;29.69;98081.36;116071;1184;69307;-73
2021/10/05 09:33:37;;;;;;;5.20;4.20;;;;;;;24.23;29.48;98084.39;116200;1184;59542;-73
2021/10/05 09:36:07;;;;;;;;;;;;;;;24.28;29.30;98086.84;116149;1184;59964;-73
2021/10/05 09:38:38;;;;;;;5.20;3.80;;;;;;;24.20;29.04;98087.88;116101;1184;71641;-75
2021/10/05 09:41:18;;;;;;;8.70;4.50;;;;;;;23.69;30.17;98084.63;116147;1183;67767;-72
2021/10/05 09:44:03;;;;;;;4.80;3.30;;;;;;;23.14;30.71;98086.92;116137;1184;68578;-72
2021/10/05 09:46:37;;;;;;;;;;;;;;;23.62;29.41;98090.35;116269;1183;59569;-72
2021/10/05 09:49:11;;;;;;;3.70;2.60;;;;;;;23.62;29.22;98088.84;116259;1181;59561;-72
2021/10/05 09:51:41;;;;;;;5.70;3.70;;;;;;;23.48;29.79;98085.42;116110;1184;71502;-73
2021/10/05 09:54:10;;;;;;;;;;;;;;;23.62;29.76;98085.05;116260;1184;68485;-73
2021/10/05 09:56:39;;;;;;;5.10;3.30;;;;;;;23.75;28.48;98090.05;116187;1184;69363;-72
2021/10/05 09:59:08;;;;;;;4.00;3.20;;;;;;;23.59;28.79;98087.52;116154;1184;59586;-74
2021/10/05 10:01:39;;;;;;;4.80;3.70;;;;;;;23.44;29.13;98080.77;116160;1183;59548;-74
2021/10/05 10:04:16;;;;;;;3.90;3.20;;;;;;;23.31;28.69;98086.86;116113;1184;70385;-73
2021/10/05 10:06:46;;;;;;;4.70;3.30;;;;;;;23.10;29.35;98086.67;116596;1183;68294;-75
2021/10/05 10:09:18;;;;;;;3.80;2.90;;;;;;;22.83;29.69;98093.50;116310;1183;69250;-74
2021/10/05 10:12:11;;;;;;;4.90;3.30;;;;;;;22.87;29.66;98084.44;116169;1184;59567;-73
2021/10/05 10:15:33;;;;;;;4.20;3.10;;;;;;;22.93;29.02;98083.20;116313;1183;59475;-74
2021/10/05 10:19:03;;;;;;;4.20;3.20;;;;;;;22.80;29.43;98083.73;116257;1183;70563;-72
2021/10/05 10:22:06;;;;;;;4.80;3.60;;;;;;;23.06;29.34;98087.23;116240;1184;68454;-73
2021/10/05 10:24:49;;;;;;;4.40;3.40;;;;;;;23.04;29.42;98084.45;116351;1184;69323;-73
2021/10/05 10:27:23;;;;;;;3.60;3.30;;;;;;;23.51;28.40;98091.52;116293;1183;59544;-74
2021/10/05 10:30:09;;;;;;;4.50;3.40;;;;;;;23.82;27.51;98085.55;116164;1184;59515;-73
2021/10/05 10:32:47;;;;;;;3.30;2.50;;;;;;;23.67;27.00;98091.08;116353;1182;70593;-73
2021/10/05 10:35:17;;;;;;;;;;;;;;;23.71;26.78;98088.85;116160;1184;68516;-73
2021/10/05 10:37:47;;;;;;;;;;;;;;;23.63;26.88;98087.60;116357;1184;68581;-73
2021/10/05 10:40:19;;;;;;;4.50;3.20;;;;;;;23.82;26.22;98084.04;116286;1184;59509;-74
2021/10/05 10:42:48;;;;;;;3.90;3.20;;;;;;;24.23;26.03;98090.23;116134;1183;59523;-74
2021/10/05 10:45:24;;;;;;;4.30;3.40;;;;;;;24.40;25.58;98094.81;116363;1182;71307;-75
2021/10/05 10:47:55;;;;;;;4.80;3.20;;;;;;;24.34;25.60;98100.18;116454;1183;67645;-73
2021/10/05 10:50:37;;;;;;;4.50;3.80;;;;;;;24.50;25.39;98098.98;116139;1183;69191;-73
2021/10/05 10:53:11;;;;;;;4.80;3.10;;;;;;;24.66;25.43;98099.55;116215;1183;59512;-74
2021/10/05 10:55:40;;;;;;;4.80;3.90;;;;;;;24.68;25.61;98098.64;116160;1184;59556;-75
2021/10/05 10:58:14;;;;;;;6.50;3.70;;;;;;;24.73;25.37;98094.73;116298;1183;71507;-72
2021/10/05 11:00:52;;;;;;;4.60;3.50;;;;;;;24.83;25.86;98085.35;116346;1184;67710;-74
2021/10/05 11:03:28;;;;;;;4.60;3.60;;;;;;;25.37;25.27;98084.64;116158;1184;68889;-74
2021/10/05 11:05:57;;;;;;;4.70;3.50;;;;;;;25.64;24.51;98085.25;116239;1184;59558;-73
2021/10/05 11:08:26;;;;;;;4.30;3.30;;;;;;;25.52;24.55;98087.23;116345;1182;59515;-74
2021/10/05 11:11:03;;;;;;;5.80;3.50;;;;;;;25.32;23.81;98086.89;116202;1184;70375;-74
2021/10/05 11:13:32;;;;;;;4.80;3.20;;;;;;;25.25;23.93;98081.16;116403;1183;69005;-74
2021/10/05 11:16:03;;;;;;;5.60;4.20;;;;;;;25.12;24.03;98083.11;116334;1183;68466;-75
2021/10/05 11:18:32;;;;;;;5.50;3.80;;;;;;;24.85;24.52;98079.28;116092;1184;59580;-74
2021/10/05 11:21:06;;;;;;;5.00;3.60;;;;;;;24.90;24.55;98081.99;116301;1184;59579;-76
2021/10/05 11:23:46;;;;;;;3.80;3.00;;;;;;;24.95;24.02;98084.88;116209;1184;71403;-74
2021/10/05 11:26:21;;;;;;;4.70;3.60;;;;;;;24.77;24.58;98081.81;116149;1184;68434;-74
2021/10/05 11:28:50;;;;;;;9.10;3.60;;;;;;;24.87;24.11;98076.48;116241;1184;69384;-74
2021/10/05 11:31:18;;;;;;;5.30;3.20;;;;;;;25.04;24.38;98081.96;116311;1183;59554;-74
2021/10/05 11:33:48;;;;;;;5.10;3.80;;;;;;;25.35;24.32;98071.36;116381;1184;59528;-76
2021/10/05 11:36:21;;;;;;;5.90;3.20;;;;;;;25.64;24.20;98073.34;116172;1184;71414;-73
2021/10/05 11:38:54;;;;;;;5.00;3.50;;;;;;;25.67;23.83;98073.73;116335;1183;67627;-75
2021/10/05 11:42:01;;;;;;;6.30;3.70;;;;;;;25.58;23.80;98071.05;116332;1184;68258;-75
2021/10/05 11:44:37;;;;;;;4.50;3.20;;;;;;;25.38;23.89;98070.98;116366;1184;59568;-75
2021/10/05 11:47:14;;;;;;;4.40;3.10;;;;;;;25.16;23.72;98066.79;116398;1182;59671;-74
2021/10/05 11:49:57;;;;;;;3.60;2.70;;;;;;;25.10;23.88;98070.84;116480;1183;71369;-74
2021/10/05 11:52:40;;;;;;;5.00;3.50;;;;;;;24.45;24.41;98063.60;116243;1178;68397;-75
2021/10/05 11:55:15;;;;;;;4.10;3.70;;;;;;;24.84;24.69;98065.59;116272;1184;68473;-74
2021/10/05 11:59:20;;;;;;;3.50;2.90;;;;;;;25.02;23.95;98057.79;116085;1184;59563;-75
2021/10/05 12:02:42;;;;;;;4.50;2.50;;;;;;;25.27;23.49;98053.27;115861;1186;59564;-75